createdAt,value
2019-05-22T00:01:50.067Z,100001.59
2019-05-22T00:05:58.263Z,100000.12
2019-05-22T00:10:07.414Z,99994.64
2019-05-22T00:14:15.093Z,99997.52
2019-05-22T00:18:22.065Z,100000.33
2019-05-22T00:22:30.332Z,99994.99
2019-05-22T00:26:37.269Z,100000.11
2019-05-22T00:30:47.577Z,99998.25
2019-05-22T00:34:56.779Z,100001.06
2019-05-22T00:39:05.383Z,99994.18
2019-05-22T00:43:14.386Z,99999.97
2019-05-22T00:47:23.775Z,100008.31
2019-05-22T00:51:45.718Z,100008.61
2019-05-22T00:56:01.988Z,100003.34
2019-05-22T01:00:27.846Z,100004.47
2019-05-22T01:04:38.009Z,100012.77
2019-05-22T01:08:56.725Z,100016.75
2019-05-22T01:13:04.620Z,100025.92
2019-05-22T01:17:14.735Z,100018.45
2019-05-22T01:21:24.726Z,100017.34
2019-05-22T01:25:34.142Z,100026.37
2019-05-22T01:29:41.757Z,100025.22
2019-05-22T01:34:00.257Z,100028.73
2019-05-22T01:38:11.064Z,100023.23
2019-05-22T01:42:22.765Z,100022.11
2019-05-22T01:46:34.361Z,100021.62
2019-05-22T01:50:51.929Z,100013.25
2019-05-22T01:54:59.890Z,100017.38
2019-05-22T01:59:08.376Z,100022.63
2019-05-22T02:03:17.609Z,100022.11
2019-05-22T02:07:28.504Z,100022.41
2019-05-22T02:11:38.136Z,100028.47
2019-05-22T02:15:52.409Z,100022.63
2019-05-22T02:20:00.002Z,100018.32
2019-05-22T02:24:09.410Z,100021.59
2019-05-22T02:28:16.553Z,100032.70
2019-05-22T02:32:24.028Z,100038.02
2019-05-22T02:36:32.878Z,100039.44
2019-05-22T02:40:43.015Z,100038.33
2019-05-22T02:44:50.316Z,100038.92
2019-05-22T02:48:59.227Z,100040.56
2019-05-22T02:53:11.377Z,100037.88
2019-05-22T02:57:19.253Z,100043.20
2019-05-22T03:01:28.139Z,100036.03
2019-05-22T03:05:35.830Z,100039.44
2019-05-22T03:09:46.581Z,100048.02
2019-05-22T03:14:05.405Z,100047.65
2019-05-22T03:18:14.127Z,100049.86
2019-05-22T03:22:30.994Z,100052.97
2019-05-22T03:26:48.710Z,100055.93
2019-05-22T03:30:57.058Z,100063.92
2019-05-22T03:35:05.041Z,100059.02
2019-05-22T03:39:14.011Z,100066.59
2019-05-22T03:43:24.586Z,100071.52
2019-05-22T03:47:31.864Z,100074.34
2019-05-22T03:51:39.149Z,100077.14
2019-05-22T03:55:46.845Z,100077.27
2019-05-22T03:59:54.751Z,100083.45
2019-05-22T04:04:03.265Z,100083.52
2019-05-22T04:08:11.098Z,100083.40
2019-05-22T04:12:18.510Z,100093.98
2019-05-22T04:16:26.835Z,100095.56
2019-05-22T04:20:33.840Z,100091.67
2019-05-22T04:24:42.175Z,100097.45
2019-05-22T04:28:53.022Z,100099.78
2019-05-22T04:33:00.384Z,100107.64
2019-05-22T04:37:09.238Z,100112.05
2019-05-22T04:41:16.637Z,100112.96
2019-05-22T04:45:25.672Z,100108.05
2019-05-22T04:49:34.214Z,100112.09
2019-05-22T04:53:41.365Z,100113.09
2019-05-22T04:57:48.484Z,100114.75
2019-05-22T05:01:55.533Z,100123.74
2019-05-22T05:06:06.363Z,100126.09
2019-05-22T05:10:12.226Z,100129.57
2019-05-22T05:14:19.037Z,100133.88
2019-05-22T05:18:26.287Z,100137.33
2019-05-22T05:22:45.408Z,100143.22
2019-05-22T05:26:53.152Z,100143.69
2019-05-22T05:30:59.956Z,100151.89
2019-05-22T05:35:09.866Z,100152.03
2019-05-22T05:40:21.128Z,100160.36
2019-05-22T05:44:28.166Z,100160.00
2019-05-22T05:48:35.895Z,100165.05
2019-05-22T05:52:44.050Z,100168.17
2019-05-22T05:56:51.988Z,100175.34
2019-05-22T06:01:09.886Z,100173.44
2019-05-22T06:05:17.751Z,100176.95
2019-05-22T06:09:25.947Z,100176.06
2019-05-22T06:13:35.494Z,100185.63
2019-05-22T06:18:37.444Z,100184.15
2019-05-22T06:23:05.525Z,100179.77
2019-05-22T06:27:30.562Z,100190.13
2019-05-22T06:31:51.874Z,100193.60
2019-05-22T06:36:00.997Z,100201.13
2019-05-22T06:40:09.867Z,100195.68
2019-05-22T06:44:44.494Z,100199.67
2019-05-22T06:49:13.906Z,100203.77
2019-05-22T06:58:50.869Z,100205.00
2019-05-22T07:02:57.779Z,100206.79
2019-05-22T07:07:11.825Z,100202.65
2019-05-22T07:11:19.130Z,100207.78
2019-05-22T07:15:52.447Z,100211.95
2019-05-22T07:19:59.852Z,100216.69
2019-05-22T07:24:07.978Z,100220.17
2019-05-22T07:28:20.490Z,100221.41
2019-05-22T07:32:31.140Z,100225.99
2019-05-22T07:36:39.738Z,100221.72
2019-05-22T07:40:50.381Z,100227.94
2019-05-22T07:44:57.152Z,100232.98
2019-05-22T07:49:05.970Z,100238.98
2019-05-22T07:53:17.677Z,100234.98
2019-05-22T07:57:27.548Z,100240.39
2019-05-22T08:01:35.140Z,100245.59
2019-05-22T08:05:45.326Z,100251.97
2019-05-22T08:09:52.819Z,100255.14
2019-05-22T08:14:00.511Z,100264.30
2019-05-22T08:18:08.144Z,100265.67
2019-05-22T08:22:17.116Z,100264.19
2019-05-22T08:26:24.832Z,100270.48
2019-05-22T08:30:31.877Z,100271.30
2019-05-22T08:34:40.925Z,100275.17
2019-05-22T08:38:47.792Z,100278.78
2019-05-22T08:42:54.928Z,100280.46
2019-05-22T08:47:20.413Z,100284.47
2019-05-22T08:51:29.183Z,100282.70
2019-05-22T08:55:37.341Z,100286.33
2019-05-22T08:59:45.534Z,100286.53
2019-05-22T09:03:52.587Z,100288.41
2019-05-22T09:07:59.509Z,100283.45
2019-05-22T09:12:08.335Z,100288.27
2019-05-22T09:16:16.554Z,100286.91
2019-05-22T09:20:24.054Z,100294.27
2019-05-22T09:24:32.394Z,100302.34
2019-05-22T09:28:39.400Z,100307.61
2019-05-22T09:32:47.651Z,100313.45
2019-05-22T09:36:54.620Z,100321.64
2019-05-22T09:41:02.244Z,100328.00
2019-05-22T09:45:11.598Z,100330.67
2019-05-22T09:49:18.506Z,100339.70
2019-05-22T09:53:26.199Z,100340.92
2019-05-22T09:57:33.018Z,100336.82
2019-05-22T10:01:39.951Z,100347.23
2019-05-22T10:05:47.341Z,100348.46
2019-05-22T10:09:54.283Z,100346.99
2019-05-22T10:14:01.888Z,100344.20
2019-05-22T10:18:09.113Z,100355.50
2019-05-22T10:22:17.276Z,100349.03
2019-05-22T10:26:24.217Z,100347.06
2019-05-22T10:30:31.463Z,100350.06
2019-05-22T10:34:38.646Z,100350.53
2019-05-22T10:38:46.548Z,100355.43
2019-05-22T10:42:53.819Z,100349.88
2019-05-22T10:47:00.847Z,100354.20
2019-05-22T10:51:07.732Z,100356.25
2019-05-22T10:55:16.923Z,100359.36
2019-05-22T10:59:25.280Z,100358.77
2019-05-22T11:03:33.399Z,100363.14
2019-05-22T11:07:40.987Z,100365.63
2019-05-22T11:11:48.035Z,100369.83
2019-05-22T11:15:56.280Z,100372.61
2019-05-22T11:20:03.553Z,100386.13
2019-05-22T11:24:10.811Z,100381.16
2019-05-22T11:28:17.618Z,100379.63
2019-05-22T11:32:24.520Z,100381.58
2019-05-22T11:36:34.289Z,100385.30
2019-05-22T11:40:42.305Z,100387.77
2019-05-22T11:44:49.089Z,100386.09
2019-05-22T11:48:56.000Z,100384.66
2019-05-22T11:53:02.989Z,100382.24
2019-05-22T11:57:10.835Z,100385.02
2019-05-22T12:01:18.232Z,100385.55
2019-05-22T12:05:25.564Z,100385.16
2019-05-22T12:09:33.156Z,100393.02
2019-05-22T12:13:40.106Z,100387.91
2019-05-22T12:17:47.387Z,100389.09
2019-05-22T12:21:54.247Z,100390.91
2019-05-22T12:26:01.479Z,100386.06
2019-05-22T12:30:10.086Z,100388.68
2019-05-22T12:34:17.009Z,100385.78
2019-05-22T12:38:27.112Z,100378.70
2019-05-22T12:42:33.929Z,100387.55
2019-05-22T12:46:40.808Z,100392.78
2019-05-22T12:50:48.069Z,100393.91
2019-05-22T12:54:55.144Z,100396.86
2019-05-22T12:59:02.130Z,100389.81
2019-05-22T13:03:09.324Z,100385.77
2019-05-22T13:07:16.558Z,100379.30
2019-05-22T13:11:25.248Z,100375.33
2019-05-22T13:15:35.284Z,100372.29
2019-05-22T13:19:43.817Z,100384.36
2019-05-22T13:23:53.492Z,100385.94
2019-05-22T13:28:03.339Z,100384.59
2019-05-22T13:32:12.210Z,100389.87
2019-05-22T13:36:22.480Z,100380.23
2019-05-22T13:40:30.403Z,100379.80
2019-05-22T13:44:38.118Z,100387.61
2019-05-22T13:48:45.055Z,100382.72
2019-05-22T13:52:53.899Z,100377.84
2019-05-22T13:57:00.889Z,100384.48
2019-05-22T14:01:08.912Z,100377.13
2019-05-22T14:05:17.430Z,100379.76
2019-05-22T14:09:25.043Z,100384.11
2019-05-22T14:13:32.013Z,100384.72
2019-05-22T14:17:39.148Z,100377.62
2019-05-22T14:21:51.835Z,100382.15
2019-05-22T14:25:58.692Z,100373.80
2019-05-22T14:30:07.733Z,100384.36
2019-05-22T14:34:14.996Z,100375.87
2019-05-22T14:38:22.320Z,100377.20
2019-05-22T14:42:29.322Z,100378.91
2019-05-22T14:46:36.414Z,100382.14
2019-05-22T14:50:43.235Z,100382.02
2019-05-22T14:54:50.786Z,100388.83
2019-05-22T14:58:58.050Z,100377.33
2019-05-22T15:03:06.730Z,100372.18
2019-05-22T15:07:13.961Z,100372.18
2019-05-22T15:11:21.205Z,100373.03
2019-05-22T15:15:28.608Z,100376.41
2019-05-22T15:19:35.424Z,100375.01
2019-05-22T15:23:43.522Z,100382.87
2019-05-22T15:27:51.044Z,100379.23
2019-05-22T15:31:57.839Z,100373.99
2019-05-22T15:36:08.106Z,100375.19
2019-05-22T15:40:16.851Z,100363.83
2019-05-22T15:44:25.034Z,100369.06
2019-05-22T15:48:34.526Z,100368.06
2019-05-22T15:52:43.201Z,100370.94
2019-05-22T15:56:51.420Z,100367.44
2019-05-22T16:01:00.564Z,100364.56
2019-05-22T16:05:09.417Z,100358.86
2019-05-22T16:09:18.036Z,100359.32
2019-05-22T16:13:27.017Z,100358.77
2019-05-22T16:17:35.791Z,100354.56
2019-05-22T16:21:49.366Z,100350.56
2019-05-22T16:25:56.567Z,100350.38
2019-05-22T16:30:06.412Z,100346.96
2019-05-22T16:34:16.471Z,100347.05
2019-05-22T16:38:25.662Z,100348.78
2019-05-22T16:42:34.983Z,100355.04
2019-05-22T16:46:43.742Z,100343.61
2019-05-22T16:50:52.780Z,100341.34
2019-05-22T16:55:01.713Z,100343.30
2019-05-22T16:59:12.672Z,100345.22
2019-05-22T17:03:21.864Z,100340.55
2019-05-22T17:07:32.783Z,100341.79
2019-05-22T17:11:41.589Z,100343.86
2019-05-22T17:15:49.301Z,100336.41
2019-05-22T17:19:56.541Z,100338.72
2019-05-22T17:24:08.550Z,100338.94
2019-05-22T17:28:17.129Z,100338.19
2019-05-22T17:32:26.569Z,100343.39
2019-05-22T17:36:34.299Z,100340.59
2019-05-22T17:40:42.383Z,100337.50
2019-05-22T17:44:51.651Z,100334.20
2019-05-22T17:49:00.515Z,100336.25
2019-05-22T17:53:09.194Z,100334.14
2019-05-22T17:57:17.040Z,100339.61
2019-05-22T18:01:24.717Z,100333.27
2019-05-22T18:05:33.564Z,100332.36
2019-05-22T18:09:40.629Z,100333.66
2019-05-22T18:14:04.113Z,100334.61
2019-05-22T18:18:11.433Z,100336.84
2019-05-22T18:22:18.504Z,100335.81
2019-05-22T18:26:25.857Z,100334.14
2019-05-22T18:30:35.509Z,100337.53
2019-05-22T18:34:42.383Z,100335.72
2019-05-22T18:38:49.386Z,100336.38
2019-05-22T18:42:57.809Z,100338.05
2019-05-22T18:47:06.027Z,100345.05
2019-05-22T18:51:13.904Z,100338.40
2019-05-22T18:55:21.518Z,100340.19
2019-05-22T18:59:28.571Z,100343.15
2019-05-22T19:03:36.220Z,100346.75
2019-05-22T19:07:43.105Z,100341.67
2019-05-22T19:11:52.454Z,100340.22
2019-05-22T19:16:02.767Z,100341.95
2019-05-22T19:20:10.351Z,100341.19
2019-05-22T19:24:17.254Z,100341.92
2019-05-22T19:28:40.462Z,100348.53
2019-05-22T19:32:33.676Z,100357.09
2019-05-22T19:36:40.462Z,100363.34
2019-05-22T19:40:47.503Z,100362.54
2019-05-22T19:45:01.024Z,100368.15
2019-05-22T19:49:08.028Z,100367.56
2019-05-22T19:53:19.169Z,100364.70
2019-05-22T19:57:23.685Z,100369.66
2019-05-22T20:01:59.173Z,100369.83
2019-05-22T20:06:06.436Z,100381.98
2019-05-22T20:10:14.041Z,100380.80
2019-05-22T20:14:20.964Z,100370.86
2019-05-22T20:18:28.232Z,100382.00
2019-05-22T20:22:36.872Z,100382.27
2019-05-22T20:26:43.812Z,100379.02
2019-05-22T20:30:51.164Z,100382.57
2019-05-22T20:34:57.993Z,100392.56
2019-05-22T20:39:09.384Z,100390.41
2019-05-22T20:43:16.934Z,100393.19
2019-05-22T20:47:26.953Z,100385.48
2019-05-22T20:51:35.088Z,100393.09
2019-05-22T20:55:44.810Z,100386.91
2019-05-22T20:59:52.249Z,100391.78
2019-05-22T21:04:04.036Z,100388.10
2019-05-22T21:08:16.136Z,100394.30
2019-05-22T21:12:25.702Z,100393.77
2019-05-22T21:16:33.004Z,100401.31
2019-05-22T21:20:53.690Z,100394.77
2019-05-22T21:24:49.850Z,100392.16
2019-05-22T21:28:57.710Z,100395.39
2019-05-22T21:33:05.356Z,100389.70
2019-05-22T21:37:12.634Z,100392.54
2019-05-22T21:41:22.056Z,100384.48
2019-05-22T21:45:28.971Z,100388.11
2019-05-22T21:49:38.785Z,100381.16
2019-05-22T21:53:45.261Z,100390.22
2019-05-22T21:57:52.392Z,100400.28
2019-05-22T22:02:09.395Z,100396.42
2019-05-22T22:06:16.665Z,100405.86
2019-05-22T22:10:23.715Z,100401.38
2019-05-22T22:14:30.800Z,100404.98
2019-05-22T22:18:39.967Z,100408.54
2019-05-22T22:22:49.178Z,100410.20
2019-05-22T22:26:56.851Z,100404.39
2019-05-22T22:31:07.401Z,100405.61
2019-05-22T22:35:16.514Z,100406.23
2019-05-22T22:39:25.974Z,100406.00
2019-05-22T22:43:36.990Z,100409.41
2019-05-22T22:47:46.108Z,100412.59
2019-05-22T22:51:53.230Z,100411.14
2019-05-22T22:56:00.813Z,100416.08
2019-05-22T23:00:13.335Z,100427.34
2019-05-22T23:04:23.974Z,100420.67
2019-05-22T23:08:33.748Z,100418.73
2019-05-22T23:12:43.014Z,100421.80
2019-05-22T23:16:51.053Z,100419.78
2019-05-22T23:20:55.495Z,100428.77
2019-05-22T23:25:04.199Z,100422.52
2019-05-22T23:29:12.978Z,100422.00
2019-05-22T23:33:19.823Z,100422.70
2019-05-22T23:37:28.060Z,100425.17
2019-05-22T23:41:37.063Z,100421.06
2019-05-22T23:45:43.879Z,100419.43
2019-05-22T23:49:51.460Z,100422.25
2019-05-22T23:54:00.447Z,100430.22
2019-05-22T23:58:08.808Z,100421.59
